sensor_id;sensor_type;location;lat;lon;timestamp;P1;durP1;ratioP1;P2;durP2;ratioP2
30000;SDS011;16845;48.670;9.000;2024-01-25T00:02:15;29.13;;;5.95;;
30000;SDS011;16845;48.670;9.000;2024-01-25T00:04:42;32.33;;;8.15;;
30000;SDS011;16845;48.670;9.000;2024-01-25T00:07:08;32.27;;;5.90;;
30000;SDS011;16845;48.670;9.000;2024-01-25T00:09:35;32.70;;;4.80;;
30000;SDS011;16845;48.670;9.000;2024-01-25T00:12:02;24.83;;;6.53;;
30000;SDS011;16845;48.670;9.000;2024-01-25T00:14:29;35.40;;;7.15;;
30000;SDS011;16845;48.670;9.000;2024-01-25T00:16:57;28.98;;;5.70;;
30000;SDS011;16845;48.670;9.000;2024-01-25T00:19:23;26.73;;;5.43;;
30000;SDS011;16845;48.670;9.000;2024-01-25T00:21:50;30.90;;;5.13;;
30000;SDS011;16845;48.670;9.000;2024-01-25T00:24:17;26.97;;;4.97;;
30000;SDS011;16845;48.670;9.000;2024-01-25T00:26:43;22.77;;;5.20;;
30000;SDS011;16845;48.670;9.000;2024-01-25T00:29:10;26.30;;;6.40;;
30000;SDS011;16845;48.670;9.000;2024-01-25T00:31:36;23.85;;;4.13;;
30000;SDS011;16845;48.670;9.000;2024-01-25T00:34:04;21.77;;;3.72;;
30000;SDS011;16845;48.670;9.000;2024-01-25T00:36:31;24.40;;;5.03;;
30000;SDS011;16845;48.670;9.000;2024-01-25T00:38:59;28.08;;;5.07;;
30000;SDS011;16845;48.670;9.000;2024-01-25T00:41:25;32.13;;;5.40;;
30000;SDS011;16845;48.670;9.000;2024-01-25T00:43:54;31.35;;;6.15;;
30000;SDS011;16845;48.670;9.000;2024-01-25T00:46:21;20.95;;;5.55;;
30000;SDS011;16845;48.670;9.000;2024-01-25T00:48:48;28.70;;;5.53;;
30000;SDS011;16845;48.670;9.000;2024-01-25T00:51:19;33.90;;;5.22;;
30000;SDS011;16845;48.670;9.000;2024-01-25T00:53:47;23.60;;;4.75;;
30000;SDS011;16845;48.670;9.000;2024-01-25T00:56:15;26.92;;;4.55;;
30000;SDS011;16845;48.670;9.000;2024-01-25T00:58:42;26.73;;;5.45;;
30000;SDS011;16845;48.670;9.000;2024-01-25T01:01:09;27.40;;;4.72;;
30000;SDS011;16845;48.670;9.000;2024-01-25T01:03:37;25.83;;;4.20;;
30000;SDS011;16845;48.670;9.000;2024-01-25T01:06:04;21.02;;;4.82;;
30000;SDS011;16845;48.670;9.000;2024-01-25T01:08:33;23.20;;;4.07;;
30000;SDS011;16845;48.670;9.000;2024-01-25T01:10:59;33.00;;;4.50;;
30000;SDS011;16845;48.670;9.000;2024-01-25T01:13:26;25.67;;;5.50;;
30000;SDS011;16845;48.670;9.000;2024-01-25T01:15:53;25.10;;;4.43;;
30000;SDS011;16845;48.670;9.000;2024-01-25T01:18:19;26.08;;;4.35;;
30000;SDS011;16845;48.670;9.000;2024-01-25T01:20:46;24.17;;;5.30;;
30000;SDS011;16845;48.670;9.000;2024-01-25T01:23:12;22.42;;;4.28;;
30000;SDS011;16845;48.670;9.000;2024-01-25T01:25:40;30.73;;;5.28;;
30000;SDS011;16845;48.670;9.000;2024-01-25T01:28:07;23.05;;;5.25;;
30000;SDS011;16845;48.670;9.000;2024-01-25T01:30:34;29.77;;;4.40;;
30000;SDS011;16845;48.670;9.000;2024-01-25T01:33:00;25.60;;;5.10;;
30000;SDS011;16845;48.670;9.000;2024-01-25T01:35:27;18.47;;;3.80;;
30000;SDS011;16845;48.670;9.000;2024-01-25T01:37:53;17.87;;;5.03;;
30000;SDS011;16845;48.670;9.000;2024-01-25T01:40:20;26.27;;;6.22;;
30000;SDS011;16845;48.670;9.000;2024-01-25T01:42:48;26.47;;;4.43;;
30000;SDS011;16845;48.670;9.000;2024-01-25T01:45:15;25.85;;;4.90;;
30000;SDS011;16845;48.670;9.000;2024-01-25T01:47:42;20.63;;;4.50;;
30000;SDS011;16845;48.670;9.000;2024-01-25T01:50:10;29.70;;;6.28;;
30000;SDS011;16845;48.670;9.000;2024-01-25T01:52:37;31.92;;;5.80;;
30000;SDS011;16845;48.670;9.000;2024-01-25T01:55:04;20.47;;;4.57;;
30000;SDS011;16845;48.670;9.000;2024-01-25T01:57:32;32.83;;;4.95;;
30000;SDS011;16845;48.670;9.000;2024-01-25T02:00:00;24.67;;;4.53;;
30000;SDS011;16845;48.670;9.000;2024-01-25T02:02:29;33.83;;;4.95;;
30000;SDS011;16845;48.670;9.000;2024-01-25T02:04:56;29.58;;;5.20;;
30000;SDS011;16845;48.670;9.000;2024-01-25T02:07:23;27.57;;;4.90;;
30000;SDS011;16845;48.670;9.000;2024-01-25T02:09:49;28.73;;;5.83;;
30000;SDS011;16845;48.670;9.000;2024-01-25T02:12:16;21.38;;;4.43;;
30000;SDS011;16845;48.670;9.000;2024-01-25T02:14:43;26.27;;;5.07;;
30000;SDS011;16845;48.670;9.000;2024-01-25T02:17:11;28.93;;;5.43;;
30000;SDS011;16845;48.670;9.000;2024-01-25T02:19:38;24.85;;;5.97;;
30000;SDS011;16845;48.670;9.000;2024-01-25T02:22:04;27.53;;;6.60;;
30000;SDS011;16845;48.670;9.000;2024-01-25T02:24:33;24.00;;;4.95;;
30000;SDS011;16845;48.670;9.000;2024-01-25T02:27:00;28.40;;;5.90;;
30000;SDS011;16845;48.670;9.000;2024-01-25T02:29:27;25.92;;;5.32;;
30000;SDS011;16845;48.670;9.000;2024-01-25T02:31:53;25.58;;;4.90;;
30000;SDS011;16845;48.670;9.000;2024-01-25T02:34:20;25.05;;;4.90;;
30000;SDS011;16845;48.670;9.000;2024-01-25T02:36:46;30.17;;;5.43;;
30000;SDS011;16845;48.670;9.000;2024-01-25T02:39:13;26.98;;;4.80;;
30000;SDS011;16845;48.670;9.000;2024-01-25T02:41:41;27.90;;;5.90;;
30000;SDS011;16845;48.670;9.000;2024-01-25T02:44:07;35.80;;;5.57;;
30000;SDS011;16845;48.670;9.000;2024-01-25T02:46:34;33.40;;;5.07;;
30000;SDS011;16845;48.670;9.000;2024-01-25T02:49:01;16.30;;;4.25;;
30000;SDS011;16845;48.670;9.000;2024-01-25T02:51:27;24.07;;;4.37;;
30000;SDS011;16845;48.670;9.000;2024-01-25T02:53:54;20.33;;;4.20;;
30000;SDS011;16845;48.670;9.000;2024-01-25T02:56:21;23.67;;;5.67;;
30000;SDS011;16845;48.670;9.000;2024-01-25T02:58:48;19.50;;;3.67;;
30000;SDS011;16845;48.670;9.000;2024-01-25T03:01:16;22.35;;;4.78;;
30000;SDS011;16845;48.670;9.000;2024-01-25T03:03:43;26.10;;;4.95;;
30000;SDS011;16845;48.670;9.000;2024-01-25T03:06:09;30.73;;;5.27;;
30000;SDS011;16845;48.670;9.000;2024-01-25T03:08:36;31.73;;;5.97;;
30000;SDS011;16845;48.670;9.000;2024-01-25T03:11:02;33.53;;;5.43;;
30000;SDS011;16845;48.670;9.000;2024-01-25T03:13:29;23.45;;;4.55;;
30000;SDS011;16845;48.670;9.000;2024-01-25T03:15:57;20.33;;;6.05;;
30000;SDS011;16845;48.670;9.000;2024-01-25T03:18:24;26.10;;;5.38;;
30000;SDS011;16845;48.670;9.000;2024-01-25T03:20:50;28.03;;;5.10;;
30000;SDS011;16845;48.670;9.000;2024-01-25T03:23:17;29.85;;;5.10;;
30000;SDS011;16845;48.670;9.000;2024-01-25T03:25:43;30.48;;;5.28;;
30000;SDS011;16845;48.670;9.000;2024-01-25T03:28:10;23.07;;;4.93;;
30000;SDS011;16845;48.670;9.000;2024-01-25T03:30:36;31.08;;;5.20;;
30000;SDS011;16845;48.670;9.000;2024-01-25T03:33:05;25.13;;;4.53;;
30000;SDS011;16845;48.670;9.000;2024-01-25T03:35:32;21.55;;;4.38;;
30000;SDS011;16845;48.670;9.000;2024-01-25T03:37:58;24.07;;;5.53;;
30000;SDS011;16845;48.670;9.000;2024-01-25T03:40:25;31.60;;;5.07;;
30000;SDS011;16845;48.670;9.000;2024-01-25T03:42:52;26.67;;;4.18;;
30000;SDS011;16845;48.670;9.000;2024-01-25T03:45:38;27.55;;;5.10;;
30000;SDS011;16845;48.670;9.000;2024-01-25T03:48:06;24.83;;;4.38;;
30000;SDS011;16845;48.670;9.000;2024-01-25T03:50:33;18.50;;;3.08;;
30000;SDS011;16845;48.670;9.000;2024-01-25T03:53:00;27.83;;;4.13;;
30000;SDS011;16845;48.670;9.000;2024-01-25T03:55:27;18.52;;;4.35;;
30000;SDS011;16845;48.670;9.000;2024-01-25T03:57:53;30.23;;;4.77;;
30000;SDS011;16845;48.670;9.000;2024-01-25T04:00:20;25.67;;;5.32;;
30000;SDS011;16845;48.670;9.000;2024-01-25T04:02:46;19.38;;;4.78;;
30000;SDS011;16845;48.670;9.000;2024-01-25T04:05:14;21.73;;;4.60;;
30000;SDS011;16845;48.670;9.000;2024-01-25T04:07:41;22.45;;;3.83;;
30000;SDS011;16845;48.670;9.000;2024-01-25T04:10:08;24.45;;;4.00;;
30000;SDS011;16845;48.670;9.000;2024-01-25T04:12:34;20.60;;;4.60;;
30000;SDS011;16845;48.670;9.000;2024-01-25T04:15:01;19.60;;;5.93;;
30000;SDS011;16845;48.670;9.000;2024-01-25T04:17:28;25.50;;;5.30;;
30000;SDS011;16845;48.670;9.000;2024-01-25T04:19:54;15.43;;;3.70;;
30000;SDS011;16845;48.670;9.000;2024-01-25T04:22:22;22.73;;;4.18;;
30000;SDS011;16845;48.670;9.000;2024-01-25T04:24:49;21.70;;;4.93;;
30000;SDS011;16845;48.670;9.000;2024-01-25T04:27:15;19.77;;;3.75;;
30000;SDS011;16845;48.670;9.000;2024-01-25T04:29:42;25.13;;;5.38;;
30000;SDS011;16845;48.670;9.000;2024-01-25T04:32:10;35.65;;;6.35;;
30000;SDS011;16845;48.670;9.000;2024-01-25T04:34:36;28.92;;;4.38;;
30000;SDS011;16845;48.670;9.000;2024-01-25T04:37:03;29.08;;;6.00;;
30000;SDS011;16845;48.670;9.000;2024-01-25T04:39:31;24.25;;;5.57;;
30000;SDS011;16845;48.670;9.000;2024-01-25T04:41:58;34.65;;;6.22;;
30000;SDS011;16845;48.670;9.000;2024-01-25T04:44:24;21.23;;;4.50;;
30000;SDS011;16845;48.670;9.000;2024-01-25T04:46:51;18.70;;;5.07;;
30000;SDS011;16845;48.670;9.000;2024-01-25T04:49:18;20.35;;;4.20;;
30000;SDS011;16845;48.670;9.000;2024-01-25T04:51:44;27.95;;;5.82;;
30000;SDS011;16845;48.670;9.000;2024-01-25T04:54:11;27.37;;;4.40;;
30000;SDS011;16845;48.670;9.000;2024-01-25T04:56:39;17.17;;;4.55;;
30000;SDS011;16845;48.670;9.000;2024-01-25T04:59:05;22.00;;;5.53;;
30000;SDS011;16845;48.670;9.000;2024-01-25T05:01:32;38.47;;;6.30;;
30000;SDS011;16845;48.670;9.000;2024-01-25T05:03:59;33.05;;;6.32;;
30000;SDS011;16845;48.670;9.000;2024-01-25T05:08:52;26.00;;;5.93;;
30000;SDS011;16845;48.670;9.000;2024-01-25T05:11:19;26.40;;;4.90;;
30000;SDS011;16845;48.670;9.000;2024-01-25T05:13:47;30.10;;;5.93;;
30000;SDS011;16845;48.670;9.000;2024-01-25T05:16:13;30.20;;;5.07;;
30000;SDS011;16845;48.670;9.000;2024-01-25T05:18:40;36.93;;;6.97;;
30000;SDS011;16845;48.670;9.000;2024-01-25T05:21:07;22.65;;;5.00;;
30000;SDS011;16845;48.670;9.000;2024-01-25T05:23:33;28.42;;;6.18;;
30000;SDS011;16845;48.670;9.000;2024-01-25T05:26:01;29.23;;;5.20;;
30000;SDS011;16845;48.670;9.000;2024-01-25T05:28:28;31.63;;;5.20;;
30000;SDS011;16845;48.670;9.000;2024-01-25T05:30:56;22.77;;;5.63;;
30000;SDS011;16845;48.670;9.000;2024-01-25T05:33:22;36.35;;;7.35;;
30000;SDS011;16845;48.670;9.000;2024-01-25T05:35:49;31.03;;;5.20;;
30000;SDS011;16845;48.670;9.000;2024-01-25T05:38:16;30.40;;;5.53;;
30000;SDS011;16845;48.670;9.000;2024-01-25T05:40:43;22.92;;;5.18;;
30000;SDS011;16845;48.670;9.000;2024-01-25T05:43:10;29.38;;;4.82;;
30000;SDS011;16845;48.670;9.000;2024-01-25T05:45:36;21.07;;;5.23;;
30000;SDS011;16845;48.670;9.000;2024-01-25T05:48:04;27.80;;;5.43;;
30000;SDS011;16845;48.670;9.000;2024-01-25T05:50:32;18.95;;;4.80;;
30000;SDS011;16845;48.670;9.000;2024-01-25T05:52:58;23.63;;;5.65;;
30000;SDS011;16845;48.670;9.000;2024-01-25T05:55:25;26.03;;;5.57;;
30000;SDS011;16845;48.670;9.000;2024-01-25T05:57:51;33.30;;;6.70;;
30000;SDS011;16845;48.670;9.000;2024-01-25T06:00:18;29.57;;;5.43;;
30000;SDS011;16845;48.670;9.000;2024-01-25T06:02:47;21.65;;;6.30;;
30000;SDS011;16845;48.670;9.000;2024-01-25T06:05:15;35.03;;;6.03;;
30000;SDS011;16845;48.670;9.000;2024-01-25T06:07:42;33.30;;;5.15;;
30000;SDS011;16845;48.670;9.000;2024-01-25T06:10:09;33.95;;;5.90;;
30000;SDS011;16845;48.670;9.000;2024-01-25T06:15:03;17.60;;;5.13;;
30000;SDS011;16845;48.670;9.000;2024-01-25T06:19:56;20.95;;;5.18;;
30000;SDS011;16845;48.670;9.000;2024-01-25T06:22:24;22.53;;;4.73;;
30000;SDS011;16845;48.670;9.000;2024-01-25T06:24:51;25.00;;;5.97;;
30000;SDS011;16845;48.670;9.000;2024-01-25T06:27:18;25.50;;;5.95;;
30000;SDS011;16845;48.670;9.000;2024-01-25T06:29:44;27.05;;;5.55;;
30000;SDS011;16845;48.670;9.000;2024-01-25T06:32:11;21.77;;;4.28;;
30000;SDS011;16845;48.670;9.000;2024-01-25T06:34:47;26.33;;;5.85;;
30000;SDS011;16845;48.670;9.000;2024-01-25T06:37:14;33.33;;;5.47;;
30000;SDS011;16845;48.670;9.000;2024-01-25T06:39:43;28.33;;;5.00;;
30000;SDS011;16845;48.670;9.000;2024-01-25T06:42:09;30.52;;;4.32;;
30000;SDS011;16845;48.670;9.000;2024-01-25T06:44:36;25.08;;;5.47;;
30000;SDS011;16845;48.670;9.000;2024-01-25T06:47:03;25.23;;;5.83;;
30000;SDS011;16845;48.670;9.000;2024-01-25T06:49:29;28.63;;;4.85;;
30000;SDS011;16845;48.670;9.000;2024-01-25T06:51:56;23.90;;;4.33;;
30000;SDS011;16845;48.670;9.000;2024-01-25T06:54:23;25.10;;;4.93;;
30000;SDS011;16845;48.670;9.000;2024-01-25T06:56:50;29.60;;;6.18;;
30000;SDS011;16845;48.670;9.000;2024-01-25T06:59:17;21.58;;;4.60;;
30000;SDS011;16845;48.670;9.000;2024-01-25T07:01:44;17.60;;;5.10;;
30000;SDS011;16845;48.670;9.000;2024-01-25T07:04:11;22.35;;;3.83;;
30000;SDS011;16845;48.670;9.000;2024-01-25T07:06:38;20.15;;;4.07;;
30000;SDS011;16845;48.670;9.000;2024-01-25T07:09:05;21.70;;;4.97;;
30000;SDS011;16845;48.670;9.000;2024-01-25T07:11:32;28.97;;;4.57;;
30000;SDS011;16845;48.670;9.000;2024-01-25T07:14:00;26.23;;;5.20;;
30000;SDS011;16845;48.670;9.000;2024-01-25T07:16:26;24.58;;;4.47;;
30000;SDS011;16845;48.670;9.000;2024-01-25T07:18:53;22.80;;;5.50;;
30000;SDS011;16845;48.670;9.000;2024-01-25T07:21:20;30.77;;;4.70;;
30000;SDS011;16845;48.670;9.000;2024-01-25T07:23:46;28.33;;;5.32;;
30000;SDS011;16845;48.670;9.000;2024-01-25T07:26:16;23.13;;;5.20;;
30000;SDS011;16845;48.670;9.000;2024-01-25T07:28:43;18.00;;;4.25;;
30000;SDS011;16845;48.670;9.000;2024-01-25T07:31:11;20.60;;;5.05;;
30000;SDS011;16845;48.670;9.000;2024-01-25T07:33:37;28.40;;;5.10;;
30000;SDS011;16845;48.670;9.000;2024-01-25T07:36:04;22.13;;;4.68;;
30000;SDS011;16845;48.670;9.000;2024-01-25T07:38:31;20.45;;;4.70;;
30000;SDS011;16845;48.670;9.000;2024-01-25T07:40:58;25.50;;;5.90;;
30000;SDS011;16845;48.670;9.000;2024-01-25T07:43:24;22.85;;;4.63;;
30000;SDS011;16845;48.670;9.000;2024-01-25T07:45:51;28.63;;;5.47;;
30000;SDS011;16845;48.670;9.000;2024-01-25T07:48:21;36.58;;;5.72;;
30000;SDS011;16845;48.670;9.000;2024-01-25T07:50:48;23.35;;;6.30;;
30000;SDS011;16845;48.670;9.000;2024-01-25T07:53:14;32.28;;;4.72;;
30000;SDS011;16845;48.670;9.000;2024-01-25T07:55:41;24.90;;;5.70;;
30000;SDS011;16845;48.670;9.000;2024-01-25T07:58:08;19.30;;;4.70;;
30000;SDS011;16845;48.670;9.000;2024-01-25T08:00:34;24.57;;;5.27;;
30000;SDS011;16845;48.670;9.000;2024-01-25T08:03:01;17.17;;;5.30;;
30000;SDS011;16845;48.670;9.000;2024-01-25T08:05:29;29.67;;;5.13;;
30000;SDS011;16845;48.670;9.000;2024-01-25T08:08:09;24.35;;;4.90;;
30000;SDS011;16845;48.670;9.000;2024-01-25T08:10:36;15.67;;;3.63;;
30000;SDS011;16845;48.670;9.000;2024-01-25T08:13:03;32.05;;;5.53;;
30000;SDS011;16845;48.670;9.000;2024-01-25T08:15:33;21.83;;;6.13;;
30000;SDS011;16845;48.670;9.000;2024-01-25T08:18:00;33.53;;;6.28;;
30000;SDS011;16845;48.670;9.000;2024-01-25T08:20:27;28.63;;;5.07;;
30000;SDS011;16845;48.670;9.000;2024-01-25T08:22:55;19.85;;;5.00;;
30000;SDS011;16845;48.670;9.000;2024-01-25T08:25:22;14.95;;;5.55;;
30000;SDS011;16845;48.670;9.000;2024-01-25T08:27:49;22.02;;;6.45;;
30000;SDS011;16845;48.670;9.000;2024-01-25T08:30:15;18.23;;;4.80;;
30000;SDS011;16845;48.670;9.000;2024-01-25T08:32:42;26.35;;;5.05;;
30000;SDS011;16845;48.670;9.000;2024-01-25T08:35:09;20.27;;;4.47;;
30000;SDS011;16845;48.670;9.000;2024-01-25T08:37:35;25.45;;;5.97;;
30000;SDS011;16845;48.670;9.000;2024-01-25T08:40:04;26.10;;;4.83;;
30000;SDS011;16845;48.670;9.000;2024-01-25T08:42:31;21.33;;;5.78;;
30000;SDS011;16845;48.670;9.000;2024-01-25T08:44:58;19.03;;;4.17;;
30000;SDS011;16845;48.670;9.000;2024-01-25T08:47:24;21.25;;;5.28;;
30000;SDS011;16845;48.670;9.000;2024-01-25T08:49:51;36.20;;;6.27;;
30000;SDS011;16845;48.670;9.000;2024-01-25T08:52:18;20.98;;;5.13;;
30000;SDS011;16845;48.670;9.000;2024-01-25T08:54:44;33.20;;;5.00;;
30000;SDS011;16845;48.670;9.000;2024-01-25T08:57:12;26.50;;;5.33;;
30000;SDS011;16845;48.670;9.000;2024-01-25T08:59:39;18.48;;;4.97;;
30000;SDS011;16845;48.670;9.000;2024-01-25T09:02:05;26.25;;;5.30;;
30000;SDS011;16845;48.670;9.000;2024-01-25T09:04:32;30.85;;;5.97;;
30000;SDS011;16845;48.670;9.000;2024-01-25T09:06:59;28.70;;;4.93;;
30000;SDS011;16845;48.670;9.000;2024-01-25T09:09:26;22.15;;;5.05;;
30000;SDS011;16845;48.670;9.000;2024-01-25T09:11:53;19.15;;;4.70;;
30000;SDS011;16845;48.670;9.000;2024-01-25T09:14:21;23.97;;;4.97;;
30000;SDS011;16845;48.670;9.000;2024-01-25T09:16:47;19.83;;;4.95;;
30000;SDS011;16845;48.670;9.000;2024-01-25T09:19:14;21.50;;;5.03;;
30000;SDS011;16845;48.670;9.000;2024-01-25T09:21:42;25.73;;;5.13;;
30000;SDS011;16845;48.670;9.000;2024-01-25T09:24:09;23.73;;;4.00;;
30000;SDS011;16845;48.670;9.000;2024-01-25T09:26:36;29.97;;;5.20;;
30000;SDS011;16845;48.670;9.000;2024-01-25T09:29:03;21.30;;;4.75;;
30000;SDS011;16845;48.670;9.000;2024-01-25T09:31:30;27.87;;;4.47;;
30000;SDS011;16845;48.670;9.000;2024-01-25T09:33:57;23.60;;;3.78;;
30000;SDS011;16845;48.670;9.000;2024-01-25T09:36:24;21.35;;;4.10;;
30000;SDS011;16845;48.670;9.000;2024-01-25T09:38:51;21.25;;;5.18;;
30000;SDS011;16845;48.670;9.000;2024-01-25T09:41:18;16.97;;;3.90;;
30000;SDS011;16845;48.670;9.000;2024-01-25T09:43:45;16.15;;;4.03;;
30000;SDS011;16845;48.670;9.000;2024-01-25T09:46:12;30.83;;;5.97;;
30000;SDS011;16845;48.670;9.000;2024-01-25T09:48:41;20.98;;;4.25;;
30000;SDS011;16845;48.670;9.000;2024-01-25T09:51:08;19.67;;;4.03;;
30000;SDS011;16845;48.670;9.000;2024-01-25T09:53:35;15.70;;;3.67;;
30000;SDS011;16845;48.670;9.000;2024-01-25T09:58:32;28.77;;;4.65;;
30000;SDS011;16845;48.670;9.000;2024-01-25T10:01:03;20.75;;;4.35;;
30000;SDS011;16845;48.670;9.000;2024-01-25T10:03:30;16.65;;;4.18;;
30000;SDS011;16845;48.670;9.000;2024-01-25T10:05:58;21.48;;;3.97;;
30000;SDS011;16845;48.670;9.000;2024-01-25T10:08:27;18.58;;;3.80;;
30000;SDS011;16845;48.670;9.000;2024-01-25T10:10:55;23.60;;;4.43;;
30000;SDS011;16845;48.670;9.000;2024-01-25T10:13:21;17.40;;;4.22;;
30000;SDS011;16845;48.670;9.000;2024-01-25T10:15:48;15.43;;;3.93;;
30000;SDS011;16845;48.670;9.000;2024-01-25T10:18:15;20.63;;;3.78;;
30000;SDS011;16845;48.670;9.000;2024-01-25T10:20:54;20.00;;;4.13;;
30000;SDS011;16845;48.670;9.000;2024-01-25T10:23:22;18.13;;;3.80;;
30000;SDS011;16845;48.670;9.000;2024-01-25T10:25:49;14.75;;;3.30;;
30000;SDS011;16845;48.670;9.000;2024-01-25T10:28:17;15.13;;;3.90;;
30000;SDS011;16845;48.670;9.000;2024-01-25T10:30:43;19.30;;;4.13;;
30000;SDS011;16845;48.670;9.000;2024-01-25T10:33:10;14.23;;;4.65;;
30000;SDS011;16845;48.670;9.000;2024-01-25T10:35:38;26.92;;;4.35;;
30000;SDS011;16845;48.670;9.000;2024-01-25T10:38:06;13.73;;;3.63;;
30000;SDS011;16845;48.670;9.000;2024-01-25T10:40:35;15.25;;;3.55;;
30000;SDS011;16845;48.670;9.000;2024-01-25T10:43:03;13.43;;;4.05;;
30000;SDS011;16845;48.670;9.000;2024-01-25T10:45:30;14.27;;;4.82;;
30000;SDS011;16845;48.670;9.000;2024-01-25T10:47:57;14.15;;;3.55;;
30000;SDS011;16845;48.670;9.000;2024-01-25T10:50:25;17.88;;;4.25;;
30000;SDS011;16845;48.670;9.000;2024-01-25T10:52:52;13.68;;;3.38;;
30000;SDS011;16845;48.670;9.000;2024-01-25T10:55:19;18.15;;;3.75;;
30000;SDS011;16845;48.670;9.000;2024-01-25T10:57:48;17.65;;;3.88;;
30000;SDS011;16845;48.670;9.000;2024-01-25T11:00:15;15.30;;;3.95;;
30000;SDS011;16845;48.670;9.000;2024-01-25T11:05:10;18.38;;;4.00;;
30000;SDS011;16845;48.670;9.000;2024-01-25T11:07:41;12.52;;;3.30;;
30000;SDS011;16845;48.670;9.000;2024-01-25T11:10:10;12.88;;;2.92;;
30000;SDS011;16845;48.670;9.000;2024-01-25T11:12:47;14.57;;;2.90;;
30000;SDS011;16845;48.670;9.000;2024-01-25T11:15:17;16.38;;;3.10;;
30000;SDS011;16845;48.670;9.000;2024-01-25T11:17:50;17.38;;;3.25;;
30000;SDS011;16845;48.670;9.000;2024-01-25T11:20:19;16.73;;;3.40;;
30000;SDS011;16845;48.670;9.000;2024-01-25T11:22:47;11.15;;;3.13;;
30000;SDS011;16845;48.670;9.000;2024-01-25T11:25:13;12.30;;;3.50;;
30000;SDS011;16845;48.670;9.000;2024-01-25T11:27:45;16.17;;;3.47;;
30000;SDS011;16845;48.670;9.000;2024-01-25T11:30:13;12.23;;;4.25;;
30000;SDS011;16845;48.670;9.000;2024-01-25T11:32:40;19.98;;;3.03;;
30000;SDS011;16845;48.670;9.000;2024-01-25T11:35:08;14.63;;;3.28;;
30000;SDS011;16845;48.670;9.000;2024-01-25T11:37:35;19.95;;;4.45;;
30000;SDS011;16845;48.670;9.000;2024-01-25T11:42:29;10.25;;;2.78;;
30000;SDS011;16845;48.670;9.000;2024-01-25T11:44:56;16.37;;;3.43;;
30000;SDS011;16845;48.670;9.000;2024-01-25T11:47:24;17.87;;;4.13;;
30000;SDS011;16845;48.670;9.000;2024-01-25T11:49:50;9.25;;;2.63;;
30000;SDS011;16845;48.670;9.000;2024-01-25T11:52:17;13.02;;;3.30;;
30000;SDS011;16845;48.670;9.000;2024-01-25T11:54:44;15.00;;;3.42;;
30000;SDS011;16845;48.670;9.000;2024-01-25T11:57:10;13.07;;;2.83;;
30000;SDS011;16845;48.670;9.000;2024-01-25T11:59:37;14.60;;;2.95;;
30000;SDS011;16845;48.670;9.000;2024-01-25T12:02:04;16.67;;;3.60;;
30000;SDS011;16845;48.670;9.000;2024-01-25T12:04:32;18.90;;;3.67;;
30000;SDS011;16845;48.670;9.000;2024-01-25T12:07:03;18.08;;;3.85;;
30000;SDS011;16845;48.670;9.000;2024-01-25T12:09:30;13.20;;;5.20;;
30000;SDS011;16845;48.670;9.000;2024-01-25T12:11:56;17.37;;;3.80;;
30000;SDS011;16845;48.670;9.000;2024-01-25T12:14:23;13.48;;;3.30;;
30000;SDS011;16845;48.670;9.000;2024-01-25T12:16:50;13.88;;;4.03;;
30000;SDS011;16845;48.670;9.000;2024-01-25T12:19:16;13.07;;;2.63;;
30000;SDS011;16845;48.670;9.000;2024-01-25T12:21:45;15.32;;;4.15;;
30000;SDS011;16845;48.670;9.000;2024-01-25T12:24:11;12.45;;;2.85;;
30000;SDS011;16845;48.670;9.000;2024-01-25T12:26:38;14.50;;;4.07;;
30000;SDS011;16845;48.670;9.000;2024-01-25T12:29:05;9.50;;;2.37;;
30000;SDS011;16845;48.670;9.000;2024-01-25T12:31:31;11.33;;;2.77;;
30000;SDS011;16845;48.670;9.000;2024-01-25T12:33:58;18.10;;;2.97;;
30000;SDS011;16845;48.670;9.000;2024-01-25T12:36:26;7.88;;;2.78;;
30000;SDS011;16845;48.670;9.000;2024-01-25T12:38:54;11.03;;;2.73;;
30000;SDS011;16845;48.670;9.000;2024-01-25T12:41:21;11.32;;;3.17;;
30000;SDS011;16845;48.670;9.000;2024-01-25T12:43:48;11.25;;;2.20;;
30000;SDS011;16845;48.670;9.000;2024-01-25T12:46:15;10.53;;;2.30;;
30000;SDS011;16845;48.670;9.000;2024-01-25T12:48:52;7.35;;;2.50;;
30000;SDS011;16845;48.670;9.000;2024-01-25T12:51:19;7.57;;;2.47;;
30000;SDS011;16845;48.670;9.000;2024-01-25T12:53:46;8.02;;;2.00;;
30000;SDS011;16845;48.670;9.000;2024-01-25T12:56:14;10.43;;;2.88;;
30000;SDS011;16845;48.670;9.000;2024-01-25T12:58:41;9.85;;;2.65;;
30000;SDS011;16845;48.670;9.000;2024-01-25T13:01:07;11.70;;;3.38;;
30000;SDS011;16845;48.670;9.000;2024-01-25T13:03:35;7.93;;;2.25;;
30000;SDS011;16845;48.670;9.000;2024-01-25T13:06:05;9.48;;;2.83;;
30000;SDS011;16845;48.670;9.000;2024-01-25T13:08:32;10.13;;;2.65;;
30000;SDS011;16845;48.670;9.000;2024-01-25T13:10:59;8.63;;;2.67;;
30000;SDS011;16845;48.670;9.000;2024-01-25T13:13:27;7.90;;;2.57;;
30000;SDS011;16845;48.670;9.000;2024-01-25T13:15:53;8.90;;;2.67;;
30000;SDS011;16845;48.670;9.000;2024-01-25T13:18:20;6.32;;;2.38;;
30000;SDS011;16845;48.670;9.000;2024-01-25T13:20:47;4.57;;;2.28;;
30000;SDS011;16845;48.670;9.000;2024-01-25T13:23:13;10.20;;;2.30;;
30000;SDS011;16845;48.670;9.000;2024-01-25T13:25:40;12.00;;;2.80;;
30000;SDS011;16845;48.670;9.000;2024-01-25T13:28:06;7.87;;;2.80;;
30000;SDS011;16845;48.670;9.000;2024-01-25T13:30:34;11.50;;;2.30;;
30000;SDS011;16845;48.670;9.000;2024-01-25T13:33:01;12.40;;;2.60;;
30000;SDS011;16845;48.670;9.000;2024-01-25T13:35:28;9.43;;;2.22;;
30000;SDS011;16845;48.670;9.000;2024-01-25T13:37:54;8.20;;;2.43;;
30000;SDS011;16845;48.670;9.000;2024-01-25T13:40:21;9.68;;;2.15;;
30000;SDS011;16845;48.670;9.000;2024-01-25T13:42:47;5.47;;;2.25;;
30000;SDS011;16845;48.670;9.000;2024-01-25T13:45:14;9.85;;;2.10;;
30000;SDS011;16845;48.670;9.000;2024-01-25T13:47:42;9.52;;;2.50;;
30000;SDS011;16845;48.670;9.000;2024-01-25T13:50:09;7.63;;;2.25;;
30000;SDS011;16845;48.670;9.000;2024-01-25T13:52:35;7.35;;;2.50;;
30000;SDS011;16845;48.670;9.000;2024-01-25T13:55:02;11.88;;;2.85;;
30000;SDS011;16845;48.670;9.000;2024-01-25T13:57:29;7.22;;;2.35;;
30000;SDS011;16845;48.670;9.000;2024-01-25T13:59:56;8.93;;;3.03;;
30000;SDS011;16845;48.670;9.000;2024-01-25T14:02:22;13.88;;;2.78;;
30000;SDS011;16845;48.670;9.000;2024-01-25T14:04:50;12.10;;;2.57;;
30000;SDS011;16845;48.670;9.000;2024-01-25T14:07:17;8.00;;;2.17;;
30000;SDS011;16845;48.670;9.000;2024-01-25T14:09:43;9.00;;;2.60;;
30000;SDS011;16845;48.670;9.000;2024-01-25T14:12:11;13.18;;;2.50;;
30000;SDS011;16845;48.670;9.000;2024-01-25T14:14:37;14.10;;;4.10;;
30000;SDS011;16845;48.670;9.000;2024-01-25T14:17:04;20.15;;;3.13;;
30000;SDS011;16845;48.670;9.000;2024-01-25T14:19:31;21.75;;;6.38;;
30000;SDS011;16845;48.670;9.000;2024-01-25T14:21:59;16.70;;;3.83;;
30000;SDS011;16845;48.670;9.000;2024-01-25T14:24:46;14.40;;;2.50;;
30000;SDS011;16845;48.670;9.000;2024-01-25T14:27:13;17.92;;;4.72;;
30000;SDS011;16845;48.670;9.000;2024-01-25T14:29:39;10.90;;;3.33;;
30000;SDS011;16845;48.670;9.000;2024-01-25T14:32:07;10.00;;;2.97;;
30000;SDS011;16845;48.670;9.000;2024-01-25T14:34:33;16.75;;;2.85;;
30000;SDS011;16845;48.670;9.000;2024-01-25T14:37:01;14.90;;;3.27;;
30000;SDS011;16845;48.670;9.000;2024-01-25T14:39:28;22.50;;;4.72;;
30000;SDS011;16845;48.670;9.000;2024-01-25T14:41:55;13.07;;;2.75;;
30000;SDS011;16845;48.670;9.000;2024-01-25T14:44:21;12.73;;;3.40;;
30000;SDS011;16845;48.670;9.000;2024-01-25T14:46:48;8.52;;;3.05;;
30000;SDS011;16845;48.670;9.000;2024-01-25T14:49:14;12.03;;;6.13;;
30000;SDS011;16845;48.670;9.000;2024-01-25T14:51:41;12.63;;;2.60;;